Time;durP1;ratioP1;P1;durP2;ratioP2;P2;SDS_P1;SDS_P2;PMS_P1;PMS_P2;Temp;Humidity;BMP_temperature;BMP_pressure;BME280_temperature;BME280_humidity;BME280_pressure;Samples;Min_cycle;Max_cycle;Signal;HPM_P1;HPM_P2
2022/01/18 00:00:10;;;;;;;56.97;7.80;;;4.60;99.90;;;;;;5093909;28;20040;-57
2022/01/18 00:02:39;;;;;;;66.22;9.70;;;;;;;;;;5062438;28;20076;-57
2022/01/18 00:05:12;;;;;;;60.17;6.22;;;4.60;99.90;;;;;;5060105;28;20056;-57
2022/01/18 00:07:38;;;;;;;62.45;8.13;;;4.60;99.90;;;;;;5062372;28;20367;-57
2022/01/18 00:10:05;;;;;;;71.68;7.88;;;4.70;99.90;;;;;;5061529;28;20528;-57
2022/01/18 00:13:07;;;;;;;55.53;6.13;;;;;;;;;;5062100;28;20045;-57
2022/01/18 00:18:08;;;;;;;50.33;6.40;;;4.60;99.90;;;;;;5059217;28;20065;-57
2022/01/18 00:20:53;;;;;;;63.63;7.38;;;4.80;99.90;;;;;;5061025;28;20115;-57
2022/01/18 00:23:19;;;;;;;74.63;8.70;;;4.70;99.90;;;;;;5061455;28;20127;-57
2022/01/18 00:25:50;;;;;;;63.15;8.93;;;;;;;;;;5060616;28;20044;-57
2022/01/18 00:28:16;;;;;;;53.72;7.03;;;4.80;99.90;;;;;;5059233;28;20041;-57
2022/01/18 00:36:07;;;;;;;65.85;7.30;;;4.70;99.90;;;;;;5059862;28;20048;-57
2022/01/18 00:38:45;;;;;;;55.80;6.57;;;;;;;;;;5061440;28;22019;-58
2022/01/18 00:41:12;;;;;;;61.10;8.65;;;5.10;99.90;;;;;;5060777;28;20048;-57
2022/01/18 00:43:38;;;;;;;63.35;7.72;;;5.10;99.90;;;;;;5061915;28;20043;-58
2022/01/18 00:46:04;;;;;;;63.28;6.63;;;;;;;;;;5061229;28;20059;-57
2022/01/18 00:48:35;;;;;;;68.22;8.13;;;;;;;;;;5061364;28;20036;-57
2022/01/18 00:51:03;;;;;;;65.22;6.90;;;5.00;99.90;;;;;;5059725;28;20044;-57
2022/01/18 00:53:35;;;;;;;57.85;6.60;;;;;;;;;;5060901;28;20043;-57
2022/01/18 00:59:07;;;;;;;65.68;6.55;;;4.80;99.90;;;;;;5018156;28;20041;-58
2022/01/18 01:01:34;;;;;;;79.28;8.23;;;5.00;99.90;;;;;;5008042;28;20142;-58
2022/01/18 01:04:02;;;;;;;72.22;6.90;;;4.90;99.90;;;;;;5021097;28;20964;-57
2022/01/18 01:06:30;;;;;;;62.28;7.22;;;5.00;99.90;;;;;;5022095;28;20057;-57
2022/01/18 01:08:57;;;;;;;75.85;7.32;;;4.80;99.90;;;;;;5022417;28;20042;-57
2022/01/18 01:11:24;;;;;;;76.47;9.93;;;4.90;99.90;;;;;;5022284;28;20041;-58
2022/01/18 01:13:53;;;;;;;73.65;8.05;;;4.80;99.90;;;;;;5022321;28;20064;-58
2022/01/18 01:43:21;;;;;;;49.10;5.65;;;;;;;;;;5063816;28;20051;-57
2022/01/18 01:45:48;;;;;;;49.17;6.28;;;4.50;99.90;;;;;;5063283;28;20044;-58
2022/01/18 01:48:16;;;;;;;55.25;6.05;;;;;;;;;;5063139;28;20040;-58
2022/01/18 01:50:53;;;;;;;48.20;7.05;;;;;;;;;;5064351;28;20032;-58
2022/01/18 01:53:24;;;;;;;57.70;7.60;;;4.70;99.90;;;;;;5064440;28;20048;-58
2022/01/18 01:55:52;;;;;;;38.95;4.20;;;4.70;99.90;;;;;;5063903;28;20055;-58
2022/01/18 01:58:21;;;;;;;50.63;6.20;;;4.80;99.90;;;;;;5063607;28;20179;-58
2022/01/18 02:00:51;;;;;;;50.83;6.07;;;4.80;99.90;;;;;;5063396;28;20123;-58
2022/01/18 02:03:17;;;;;;;47.22;4.72;;;;;;;;;;5062287;28;20140;-57
2022/01/18 02:05:45;;;;;;;49.70;6.63;;;4.80;99.90;;;;;;5063262;28;20106;-58
2022/01/18 02:08:13;;;;;;;36.97;4.55;;;4.70;99.90;;;;;;5062746;28;20048;-58
2022/01/18 02:10:40;;;;;;;40.42;5.32;;;4.80;99.90;;;;;;5064231;28;20390;-58
2022/01/18 02:13:07;;;;;;;45.00;6.13;;;4.90;99.90;;;;;;5061482;28;20040;-58
2022/01/18 02:15:39;;;;;;;46.45;6.05;;;4.70;99.90;;;;;;5062380;28;20539;-58
2022/01/18 02:23:37;;;;;;;40.15;6.38;;;4.90;99.90;;;;;;5062054;28;20042;-51
2022/01/18 02:26:05;;;;;;;42.97;5.70;;;4.80;99.90;;;;;;5063049;28;20429;-50
2022/01/18 02:28:31;;;;;;;43.05;4.60;;;;;;;;;;5063659;28;20029;-50
2022/01/18 02:30:57;;;;;;;38.25;4.40;;;;;;;;;;5062716;28;20036;-51
2022/01/18 02:33:25;;;;;;;39.33;5.15;;;4.90;99.90;;;;;;5063407;28;20125;-52
2022/01/18 02:35:51;;;;;;;36.30;7.18;;;4.80;99.90;;;;;;5062649;28;20117;-51
2022/01/18 02:38:17;;;;;;;40.47;4.30;;;;;;;;;;5064316;28;20500;-48
2022/01/18 02:40:43;;;;;;;34.60;4.20;;;;;;;;;;5062782;28;20032;-51
2022/01/18 02:45:57;;;;;;;30.05;4.70;;;4.50;99.90;;;;;;5062387;28;20190;-51
2022/01/18 02:48:25;;;;;;;46.10;4.95;;;4.60;99.90;;;;;;5063122;28;20051;-52
2022/01/18 02:50:51;;;;;;;47.30;5.85;;;;;;;;;;5063858;28;20037;-47
2022/01/18 02:53:17;;;;;;;34.88;4.53;;;4.60;99.90;;;;;;5062522;28;20036;-51
2022/01/18 02:55:53;;;;;;;47.00;3.85;;;4.70;99.90;;;;;;5061573;28;20119;-52
2022/01/18 02:58:27;;;;;;;38.58;5.07;;;4.50;99.90;;;;;;5062278;28;20041;-52
2022/01/18 03:03:35;;;;;;;39.95;5.28;;;4.70;99.90;;;;;;5061366;28;20048;-48
2022/01/18 03:06:01;;;;;;;40.20;4.72;;;;;;;;;;5062271;28;20508;-48
2022/01/18 03:08:27;;;;;;;46.05;4.07;;;4.60;99.90;;;;;;5062385;28;20043;-52
2022/01/18 03:10:56;;;;;;;40.38;5.15;;;4.70;99.90;;;;;;5062359;28;20090;-50
2022/01/18 03:13:23;;;;;;;30.63;5.10;;;4.80;99.90;;;;;;5062154;28;20037;-48
2022/01/18 03:15:49;;;;;;;35.60;3.38;;;;;;;;;;5062127;28;20075;-49
2022/01/18 03:18:16;;;;;;;35.10;4.38;;;;;;;;;;5061991;28;20043;-53
2022/01/18 03:20:42;;;;;;;35.55;4.45;;;;;;;;;;5062211;28;20525;-49
2022/01/18 03:23:14;;;;;;;32.38;4.43;;;4.70;99.90;;;;;;5061944;28;20060;-51
2022/01/18 03:25:52;;;;;;;31.73;4.18;;;;;;;;;;5059927;28;20592;-47
2022/01/18 03:28:18;;;;;;;27.30;3.88;;;;;;;;;;5060176;28;20051;-49
2022/01/18 03:30:48;;;;;;;34.10;3.75;;;5.70;99.90;;;;;;5061948;28;20032;-52
2022/01/18 03:33:16;;;;;;;30.27;4.47;;;4.70;99.90;;;;;;5060725;28;20460;-52
2022/01/18 03:35:45;;;;;;;27.67;3.72;;;4.90;99.90;;;;;;5060221;28;20121;-49
2022/01/18 03:38:12;;;;;;;32.03;3.88;;;4.90;99.90;;;;;;5061742;28;20040;-49
2022/01/18 03:40:38;;;;;;;38.65;5.32;;;;;;;;;;5061905;28;20079;-53
2022/01/18 03:43:10;;;;;;;29.52;3.72;;;5.00;99.90;;;;;;5062197;28;20139;-51
2022/01/18 03:45:41;;;;;;;;;;;4.80;99.90;;;;;;5063085;28;20882;-53
2022/01/18 03:48:11;;;;;;;29.00;4.88;;;5.10;99.90;;;;;;5061841;28;19972;-51
2022/01/18 03:50:39;;;;;;;28.98;4.43;;;5.00;99.90;;;;;;5063291;28;20048;-50
2022/01/18 03:53:05;;;;;;;26.60;4.22;;;5.00;99.90;;;;;;5062473;28;20067;-53
2022/01/18 03:55:31;;;;;;;30.83;4.88;;;;;;;;;;5061654;28;20064;-50
2022/01/18 03:57:57;;;;;;;25.45;3.25;;;5.10;99.90;;;;;;5061147;28;20447;-50
2022/01/18 04:00:25;;;;;;;31.75;4.65;;;5.30;99.90;;;;;;5061624;28;20079;-49
2022/01/18 04:02:52;;;;;;;26.75;3.72;;;5.20;99.90;;;;;;5061779;28;20361;-50
2022/01/18 04:05:19;;;;;;;23.27;3.60;;;5.30;99.90;;;;;;5062582;28;20118;-51
2022/01/18 04:07:45;;;;;;;30.98;4.18;;;5.30;99.90;;;;;;5062059;28;20040;-50
2022/01/18 04:10:13;;;;;;;26.58;3.30;;;5.20;99.90;;;;;;5062328;28;20040;-50
2022/01/18 04:12:39;;;;;;;29.08;5.13;;;;;;;;;;5061436;28;20044;-51
2022/01/18 04:15:12;;;;;;;25.30;3.40;;;5.40;99.90;;;;;;5061655;28;20089;-46
2022/01/18 04:25:55;;;;;;;26.92;2.50;;;5.30;99.90;;;;;;5061121;28;20044;-48
2022/01/18 04:28:35;;;;;;;22.05;2.97;;;5.30;99.90;;;;;;5061026;28;20056;-53
2022/01/18 04:31:02;;;;;;;20.55;3.50;;;5.40;99.90;;;;;;5060271;28;20294;-47
2022/01/18 04:33:28;;;;;;;23.27;3.72;;;5.40;99.90;;;;;;5059428;28;20043;-50
2022/01/18 04:35:53;;;;;;;17.00;2.75;;;5.30;99.90;;;;;;5059736;28;20615;-52
2022/01/18 04:38:19;;;;;;;20.05;2.35;;;5.40;99.90;;;;;;5058644;28;20040;-50
2022/01/18 04:40:46;;;;;;;25.88;4.05;;;5.30;99.90;;;;;;5043125;28;20047;-47
2022/01/18 04:48:31;;;;;;;23.70;2.70;;;;;;;;;;5058274;28;20894;-49
2022/01/18 04:51:00;;;;;;;22.13;2.58;;;5.10;99.90;;;;;;5061740;28;20045;-50
2022/01/18 04:53:29;;;;;;;22.90;2.65;;;5.20;99.90;;;;;;5059807;28;20048;-51
2022/01/18 04:55:56;;;;;;;19.00;2.30;;;5.00;99.90;;;;;;5061922;28;20119;-49
2022/01/18 04:58:24;;;;;;;18.58;2.60;;;5.20;99.90;;;;;;5061204;28;20094;-50
2022/01/18 05:00:53;;;;;;;20.85;2.50;;;5.10;99.90;;;;;;5058977;28;20052;-53
2022/01/18 05:03:19;;;;;;;19.58;3.00;;;;;;;;;;5061984;28;20052;-48
2022/01/18 05:05:45;;;;;;;23.08;2.60;;;5.20;99.90;;;;;;5060791;28;20041;-51
2022/01/18 05:08:14;;;;;;;22.05;2.60;;;5.10;99.90;;;;;;5061670;28;20037;-50
2022/01/18 05:10:41;;;;;;;15.77;2.58;;;5.00;99.90;;;;;;5062221;28;20037;-53
2022/01/18 05:16:23;;;;;;;22.23;4.10;;;5.10;99.90;;;;;;4999197;28;20089;-49
2022/01/18 05:19:10;;;;;;;28.15;3.05;;;;;;;;;;4999718;28;20042;-51
2022/01/18 05:24:20;;;;;;;26.05;4.50;;;4.90;99.90;;;;;;4997185;28;20045;-50
2022/01/18 05:26:48;;;;;;;22.27;2.92;;;5.00;99.90;;;;;;4998859;28;20053;-52
2022/01/18 05:29:14;;;;;;;24.58;3.40;;;5.00;99.90;;;;;;4998851;28;20073;-50
2022/01/18 05:31:39;;;;;;;22.73;3.58;;;5.00;99.90;;;;;;4998237;28;20077;-53
2022/01/18 05:34:07;;;;;;;27.23;3.55;;;5.00;99.90;;;;;;4996969;28;20050;-51
2022/01/18 05:36:33;;;;;;;22.90;4.47;;;;;;;;;;4997544;28;20636;-50
2022/01/18 05:38:59;;;;;;;23.70;4.35;;;5.00;99.90;;;;;;4997155;28;20038;-47
2022/01/18 05:41:25;;;;;;;29.65;4.53;;;5.10;99.90;;;;;;4997587;28;20038;-51
2022/01/18 05:43:50;;;;;;;23.10;3.72;;;5.00;99.90;;;;;;4997661;28;20046;-50
2022/01/18 05:46:17;;;;;;;25.63;4.40;;;;;;;;;;4983297;28;20057;-51
2022/01/18 05:48:43;;;;;;;26.23;4.57;;;;;;;;;;5001866;28;20049;-50
2022/01/18 05:51:09;;;;;;;20.75;4.47;;;5.00;99.90;;;;;;5001779;28;20061;-48
2022/01/18 05:53:35;;;;;;;23.98;4.50;;;5.20;99.90;;;;;;5051098;28;20048;-52
2022/01/18 05:56:03;;;;;;;22.00;4.22;;;5.10;99.90;;;;;;5063556;28;20052;-51
2022/01/18 05:58:29;;;;;;;28.85;5.60;;;5.00;99.90;;;;;;5062954;28;20555;-52
2022/01/18 06:00:55;;;;;;;27.88;4.30;;;5.10;99.90;;;;;;5064283;28;20032;-52
2022/01/18 06:03:51;;;;;;;26.15;4.57;;;5.10;99.90;;;;;;5063433;28;20063;-50
2022/01/18 06:09:02;;;;;;;32.58;4.80;;;5.10;99.90;;;;;;5064256;28;20032;-49
2022/01/18 06:11:30;;;;;;;24.83;4.85;;;5.00;99.90;;;;;;5062481;28;20037;-51
2022/01/18 06:13:56;;;;;;;22.52;4.38;;;;;;;;;;5062367;28;20044;-51
2022/01/18 06:16:22;;;;;;;30.27;5.68;;;;;;;;;;5064528;28;20075;-50
2022/01/18 06:18:51;;;;;;;16.20;3.60;;;5.00;99.90;;;;;;5063650;28;20097;-51
2022/01/18 06:21:16;;;;;;;26.23;3.95;;;5.10;99.90;;;;;;5064005;28;20043;-48
2022/01/18 06:23:42;;;;;;;23.23;4.57;;;;;;;;;;5063976;28;20040;-50
2022/01/18 06:26:14;;;;;;;24.50;4.82;;;;;;;;;;5063146;28;20136;-51
2022/01/18 06:28:40;;;;;;;31.33;5.10;;;;;;;;;;5063615;28;20044;-49
2022/01/18 06:31:06;;;;;;;21.58;5.70;;;;;;;;;;5062443;28;20051;-50
2022/01/18 06:33:35;;;;;;;26.17;5.43;;;5.00;99.90;;;;;;5063566;28;20140;-46
2022/01/18 06:36:01;;;;;;;20.92;5.10;;;5.00;99.90;;;;;;5063620;28;20064;-50
2022/01/18 06:38:27;;;;;;;34.28;6.43;;;;;;;;;;5062120;28;20071;-48
2022/01/18 06:40:56;;;;;;;16.15;3.97;;;4.70;99.90;;;;;;5060597;28;20051;-51
2022/01/18 06:43:22;;;;;;;30.75;4.40;;;;;;;;;;5061583;28;20052;-52
2022/01/18 06:45:48;;;;;;;29.73;4.65;;;;;;;;;;5063659;28;20110;-54
2022/01/18 06:48:14;;;;;;;24.63;4.90;;;;;;;;;;5061480;28;20048;-53
2022/01/18 06:50:40;;;;;;;29.10;4.60;;;4.80;99.90;;;;;;5063410;28;20045;-50
2022/01/18 06:53:06;;;;;;;30.40;6.28;;;;;;;;;;5063340;28;20401;-52
2022/01/18 06:55:32;;;;;;;20.13;4.90;;;;;;;;;;5062172;28;20036;-48
2022/01/18 06:57:58;;;;;;;22.30;7.07;;;4.70;99.90;;;;;;5061223;28;20039;-53
2022/01/18 07:00:24;;;;;;;22.17;4.28;;;4.90;99.90;;;;;;5063253;28;20040;-52
2022/01/18 07:02:50;;;;;;;25.55;4.40;;;;;;;;;;5062196;28;20049;-51
2022/01/18 07:05:17;;;;;;;21.58;5.28;;;4.90;99.90;;;;;;5062068;28;20098;-51
2022/01/18 07:07:47;;;;;;;24.33;5.03;;;5.00;99.90;;;;;;5062212;28;20032;-50
2022/01/18 07:10:13;;;;;;;24.45;5.07;;;;;;;;;;5062810;28;20041;-53
2022/01/18 07:12:42;;;;;;;25.33;5.70;;;4.80;99.90;;;;;;5063541;28;20044;-51
2022/01/18 07:15:08;;;;;;;21.40;4.50;;;4.50;99.90;;;;;;5063478;28;20044;-52
2022/01/18 07:17:38;;;;;;;25.25;4.78;;;5.00;99.90;;;;;;5062221;28;20041;-52
2022/01/18 07:20:04;;;;;;;25.40;5.55;;;4.90;99.90;;;;;;5062501;28;20040;-50
2022/01/18 07:22:31;;;;;;;24.88;5.10;;;4.90;99.90;;;;;;5062762;28;20043;-53
2022/01/18 07:24:59;;;;;;;16.48;4.63;;;;;;;;;;5063233;28;20565;-50
2022/01/18 07:27:25;;;;;;;22.02;5.13;;;5.00;99.90;;;;;;5062350;28;20086;-52
2022/01/18 07:29:52;;;;;;;16.90;4.65;;;4.90;99.90;;;;;;5061505;28;20036;-53
2022/01/18 07:32:20;;;;;;;24.38;4.90;;;;;;;;;;5061297;28;20040;-52
2022/01/18 07:34:51;;;;;;;24.40;5.00;;;;;;;;;;5061741;28;20040;-53
2022/01/18 07:37:18;;;;;;;19.02;5.93;;;4.80;99.90;;;;;;5061946;28;20048;-52
2022/01/18 07:39:48;;;;;;;22.35;4.32;;;4.70;99.90;;;;;;5063379;28;20033;-51
2022/01/18 07:42:15;;;;;;;27.77;4.63;;;;;;;;;;5063630;28;20119;-51
2022/01/18 07:44:41;;;;;;;13.65;3.90;;;4.60;99.90;;;;;;5063524;28;20040;-51
2022/01/18 07:47:08;;;;;;;19.50;4.63;;;4.60;99.90;;;;;;5062830;28;20536;-52
2022/01/18 07:49:34;;;;;;;19.88;4.47;;;;;;;;;;5063254;28;20037;-52
2022/01/18 07:52:00;;;;;;;20.90;5.30;;;;;;;;;;5063764;28;20078;-49
2022/01/18 07:54:26;;;;;;;24.38;4.90;;;;;;;;;;5062317;28;20036;-51
2022/01/18 07:56:54;;;;;;;27.08;5.60;;;4.20;99.90;;;;;;5062858;28;20119;-50
2022/01/18 07:59:20;;;;;;;23.50;5.25;;;;;;;;;;5062200;28;20036;-52
2022/01/18 08:01:47;;;;;;;19.80;4.22;;;;;;;;;;5060805;28;20036;-50
2022/01/18 08:04:14;;;;;;;21.73;6.38;;;4.40;99.90;;;;;;5061841;28;20072;-52
2022/01/18 08:06:42;;;;;;;26.10;5.03;;;4.40;99.90;;;;;;5061307;28;20059;-50
2022/01/18 08:09:08;;;;;;;28.15;5.72;;;;;;;;;;5060909;28;20041;-51
2022/01/18 08:11:34;;;;;;;22.83;5.10;;;;;;;;;;5062285;28;20055;-52
2022/01/18 08:14:01;;;;;;;25.10;5.60;;;4.50;99.90;;;;;;5061751;28;20513;-51
2022/01/18 08:18:58;;;;;;;30.67;6.65;;;4.40;99.90;;;;;;5059621;28;20673;-52
2022/01/18 08:21:24;;;;;;;25.27;6.40;;;;;;;;;;5063036;28;20040;-50
2022/01/18 08:23:52;;;;;;;28.40;6.75;;;4.70;99.90;;;;;;5061894;28;20101;-51
2022/01/18 08:26:18;;;;;;;28.10;6.32;;;;;;;;;;5060682;28;20401;-51
2022/01/18 08:28:45;;;;;;;25.83;6.05;;;4.70;99.90;;;;;;5061155;28;20451;-53
2022/01/18 08:31:10;;;;;;;20.55;5.28;;;4.80;99.90;;;;;;5060883;28;20068;-48
2022/01/18 08:33:36;;;;;;;32.97;7.88;;;;;;;;;;5061105;28;20079;-51
2022/01/18 08:36:06;;;;;;;27.25;6.10;;;5.10;99.90;;;;;;5062147;28;20124;-48
2022/01/18 08:38:33;;;;;;;29.10;6.72;;;5.00;99.90;;;;;;5059623;28;20036;-49
2022/01/18 08:40:59;;;;;;;25.10;6.88;;;5.10;99.90;;;;;;5060997;28;20041;-47
2022/01/18 08:43:26;;;;;;;26.42;7.78;;;5.10;99.90;;;;;;5059900;28;20040;-54
2022/01/18 08:45:52;;;;;;;32.88;7.60;;;;;;;;;;5060937;28;20038;-53
2022/01/18 08:48:18;;;;;;;33.10;8.18;;;;;;;;;;5062363;28;20064;-53
2022/01/18 08:50:44;;;;;;;36.83;9.23;;;5.30;99.90;;;;;;5063238;28;20044;-50
2022/01/18 08:53:10;;;;;;;31.77;8.93;;;;;;;;;;5062081;28;20404;-53
2022/01/18 08:55:37;;;;;;;29.65;8.02;;;5.50;99.90;;;;;;5061848;28;20051;-53
2022/01/18 08:58:04;;;;;;;32.97;10.15;;;5.40;99.90;;;;;;5061429;28;20187;-53
2022/01/18 09:00:31;;;;;;;30.80;9.77;;;5.50;99.90;;;;;;5062087;28;20432;-54
2022/01/18 09:02:58;;;;;;;32.00;9.75;;;5.60;99.90;;;;;;5062031;28;20044;-52
2022/01/18 09:05:24;;;;;;;26.88;8.48;;;;;;;;;;5062327;28;20053;-47
2022/01/18 09:07:51;;;;;;;31.58;9.32;;;5.50;99.90;;;;;;5061575;28;20032;-51
2022/01/18 09:10:19;;;;;;;25.20;8.65;;;5.60;99.90;;;;;;5058902;28;20053;-51
2022/01/18 09:12:45;;;;;;;34.75;9.10;;;5.70;99.90;;;;;;5061654;28;20118;-49
2022/01/18 09:15:12;;;;;;;34.15;9.30;;;;;;;;;;5061509;28;20075;-54
2022/01/18 09:17:40;;;;;;;37.08;9.60;;;5.70;99.90;;;;;;5061188;28;20583;-53
2022/01/18 09:20:08;;;;;;;26.25;9.75;;;5.80;99.90;;;;;;5059057;28;20049;-52
2022/01/18 09:22:38;;;;;;;33.63;9.57;;;5.80;99.90;;;;;;5062482;28;20040;-52
2022/01/18 09:25:17;;;;;;;42.28;11.77;;;5.80;99.90;;;;;;5064076;28;20067;-53
2022/01/18 09:27:43;;;;;;;36.63;11.57;;;5.80;99.90;;;;;;5063366;28;20064;-50
2022/01/18 09:30:13;;;;;;;33.85;8.98;;;5.80;99.90;;;;;;5063464;28;20094;-52
2022/01/18 09:32:39;;;;;;;27.92;8.65;;;5.90;99.90;;;;;;5064060;28;20075;-53
2022/01/18 09:35:06;;;;;;;35.17;9.70;;;5.90;99.90;;;;;;5064308;28;20048;-52
2022/01/18 09:37:32;;;;;;;29.17;10.38;;;6.00;99.90;;;;;;5063742;28;20531;-53
2022/01/18 09:39:58;;;;;;;29.13;10.65;;;6.00;99.90;;;;;;5064204;28;20040;-54
2022/01/18 09:42:34;;;;;;;26.20;9.60;;;6.00;99.90;;;;;;5065578;28;20495;-54
2022/01/18 09:45:05;;;;;;;25.70;7.38;;;6.00;99.90;;;;;;5063987;28;20037;-53
2022/01/18 09:47:31;;;;;;;24.23;7.10;;;6.10;99.90;;;;;;5064615;28;20064;-53
2022/01/18 09:49:58;;;;;;;19.10;6.90;;;6.10;99.90;;;;;;5064291;28;20075;-52
2022/01/18 09:52:24;;;;;;;21.67;7.22;;;;;;;;;;5064438;28;20048;-52
2022/01/18 09:54:52;;;;;;;20.98;5.40;;;6.10;99.90;;;;;;5065177;28;20051;-53
2022/01/18 09:57:18;;;;;;;20.08;5.38;;;;;;;;;;5063953;28;20119;-53
2022/01/18 09:59:44;;;;;;;21.15;6.50;;;6.10;99.90;;;;;;5064385;28;20494;-49
2022/01/18 10:02:10;;;;;;;17.58;5.32;;;6.10;99.90;;;;;;5063161;28;20105;-54
2022/01/18 10:04:42;;;;;;;15.48;5.53;;;6.20;99.90;;;;;;5063824;28;20137;-50
2022/01/18 10:07:08;;;;;;;19.17;6.10;;;6.20;99.90;;;;;;5064870;28;20132;-53
2022/01/18 10:09:37;;;;;;;15.73;4.88;;;6.20;99.90;;;;;;5063363;28;20131;-51
2022/01/18 10:12:11;;;;;;;12.95;4.28;;;6.30;99.90;;;;;;5064202;28;20047;-51
2022/01/18 10:14:58;;;;;;;22.20;7.30;;;6.30;99.90;;;;;;5064058;28;20072;-50
2022/01/18 10:17:31;;;;;;;19.65;4.05;;;6.30;99.90;;;;;;5064062;28;20079;-54
2022/01/18 10:20:13;;;;;;;17.05;4.70;;;6.40;99.90;;;;;;5062778;28;20041;-54
2022/01/18 10:22:42;;;;;;;20.33;6.00;;;6.50;99.90;;;;;;5064529;28;20052;-52
2022/01/18 10:25:26;;;;;;;17.83;5.05;;;6.50;99.90;;;;;;5062656;28;20040;-52
2022/01/18 10:27:53;;;;;;;18.27;5.85;;;6.40;99.90;;;;;;5063054;28;20726;-51
2022/01/18 10:30:50;;;;;;;16.20;5.95;;;6.40;99.90;;;;;;5064378;28;20801;-52
2022/01/18 10:33:22;;;;;;;17.95;6.97;;;6.40;99.90;;;;;;5062175;28;20540;-54
2022/01/18 10:36:09;;;;;;;18.95;6.70;;;6.70;99.90;;;;;;5062803;28;20036;-51
2022/01/18 10:38:36;;;;;;;22.27;4.45;;;6.40;99.90;;;;;;5063462;28;20147;-52
2022/01/18 10:41:32;;;;;;;21.27;6.75;;;6.50;99.90;;;;;;5062414;28;20052;-53
2022/01/18 10:44:13;;;;;;;16.92;6.32;;;6.30;99.90;;;;;;5062674;28;20044;-54
2022/01/18 10:46:49;;;;;;;16.37;5.87;;;6.10;99.90;;;;;;5063335;28;20067;-54
2022/01/18 10:49:47;;;;;;;14.35;3.60;;;6.30;99.90;;;;;;5062521;28;20119;-53
2022/01/18 10:52:22;;;;;;;14.98;4.60;;;6.30;99.90;;;;;;5008637;28;20691;-51
2022/01/18 10:54:52;;;;;;;15.65;4.15;;;6.40;99.90;;;;;;5005096;28;20046;-53
2022/01/18 10:57:25;;;;;;;15.50;4.35;;;6.40;99.90;;;;;;5008527;28;20131;-51
2022/01/18 11:00:08;;;;;;;14.02;4.75;;;6.40;99.90;;;;;;5008175;28;20127;-58
2022/01/18 11:02:42;;;;;;;22.25;5.55;;;6.40;99.90;;;;;;5009168;28;20045;-54
2022/01/18 11:05:28;;;;;;;19.30;4.28;;;6.50;99.90;;;;;;5007877;28;20053;-53
2022/01/18 11:07:56;;;;;;;18.38;4.22;;;6.50;99.90;;;;;;5014107;28;20192;-54
2022/01/18 11:10:25;;;;;;;18.67;6.30;;;6.50;99.90;;;;;;5011778;28;20526;-55
2022/01/18 11:13:08;;;;;;;18.38;6.13;;;6.60;99.90;;;;;;4991097;28;20038;-54
2022/01/18 11:15:37;;;;;;;17.30;5.65;;;6.50;99.90;;;;;;5000474;28;20112;-52
2022/01/18 11:18:08;;;;;;;15.85;4.65;;;6.50;99.90;;;;;;5002343;28;20037;-57
2022/01/18 11:20:38;;;;;;;22.38;8.05;;;6.40;99.90;;;;;;5002351;28;20432;-55
2022/01/18 11:23:05;;;;;;;15.95;6.43;;;6.50;99.90;;;;;;5009717;28;20070;-53
2022/01/18 11:25:31;;;;;;;16.95;7.38;;;6.60;99.90;;;;;;5013961;28;20041;-53
2022/01/18 11:27:59;;;;;;;19.48;7.82;;;6.40;99.90;;;;;;5007149;28;20048;-54
2022/01/18 11:30:31;;;;;;;18.50;6.90;;;6.30;99.90;;;;;;5062227;28;20055;-52
2022/01/18 11:33:00;;;;;;;12.85;5.93;;;6.30;99.90;;;;;;5061581;28;20051;-50
2022/01/18 11:35:39;;;;;;;19.35;7.95;;;6.40;99.90;;;;;;5062607;28;20071;-54
2022/01/18 11:38:33;;;;;;;15.05;5.32;;;6.50;99.90;;;;;;5060297;28;20378;-53
2022/01/18 11:41:02;;;;;;;13.40;5.55;;;;;;;;;;5062984;28;20060;-51
2022/01/18 11:43:42;;;;;;;14.32;5.28;;;6.50;99.90;;;;;;5061210;28;20520;-53
2022/01/18 11:46:48;;;;;;;20.75;8.45;;;6.40;99.90;;;;;;5060321;28;20536;-54
2022/01/18 11:49:23;;;;;;;17.95;9.73;;;6.40;99.90;;;;;;5003610;28;20042;-49
2022/01/18 11:51:56;;;;;;;23.75;11.60;;;6.40;99.90;;;;;;5020195;28;20585;-53
2022/01/18 11:57:04;;;;;;;14.68;5.70;;;6.40;99.90;;;;;;5003309;28;20038;-52
2022/01/18 11:59:39;;;;;;;33.42;15.57;;;6.50;99.90;;;;;;5004899;28;20041;-52
2022/01/18 12:02:06;;;;;;;15.45;7.63;;;6.50;99.90;;;;;;5008429;28;20095;-54
2022/01/18 12:04:58;;;;;;;23.88;10.85;;;6.40;99.90;;;;;;5013780;28;20160;-54
2022/01/18 12:07:56;;;;;;;24.83;8.53;;;6.40;99.90;;;;;;5009272;28;20407;-53
2022/01/18 12:10:27;;;;;;;27.92;10.93;;;6.50;99.90;;;;;;4954982;28;20794;-54
2022/01/18 12:12:55;;;;;;;27.83;11.90;;;6.60;99.90;;;;;;4943270;28;20065;-54
2022/01/18 12:15:23;;;;;;;24.98;11.07;;;6.40;99.90;;;;;;4945764;28;20085;-54
2022/01/18 12:17:53;;;;;;;29.35;15.05;;;6.40;99.90;;;;;;4931857;28;20052;-52
2022/01/18 12:20:46;;;;;;;21.90;9.88;;;6.50;99.90;;;;;;4949955;28;20047;-54
2022/01/18 12:23:12;;;;;;;28.63;14.10;;;6.50;99.90;;;;;;4902056;29;20056;-52
2022/01/18 12:26:01;;;;;;;19.95;6.07;;;6.50;99.90;;;;;;4922621;29;20086;-54
2022/01/18 12:28:55;;;;;;;20.80;7.13;;;6.60;99.90;;;;;;4921206;29;20055;-53
2022/01/18 12:34:30;;;;;;;19.88;6.88;;;6.50;99.90;;;;;;4912362;29;20055;-54
2022/01/18 12:39:54;;;;;;;22.35;7.80;;;6.50;99.90;;;;;;4906986;29;20044;-54
2022/01/18 12:45:20;;;;;;;21.80;8.15;;;6.60;99.90;;;;;;4911883;29;20134;-53
2022/01/18 12:47:50;;;;;;;33.47;14.65;;;6.50;99.90;;;;;;4935143;29;20051;-51
2022/01/18 12:50:23;;;;;;;20.05;8.27;;;6.50;99.90;;;;;;4939926;29;20046;-54
2022/01/18 12:52:53;;;;;;;23.55;8.90;;;6.50;99.90;;;;;;4940557;29;20059;-52
2022/01/18 12:55:41;;;;;;;21.23;7.65;;;6.70;99.90;;;;;;4941054;28;20109;-51
2022/01/18 12:58:19;;;;;;;26.77;10.95;;;6.50;99.90;;;;;;4944194;29;20044;-52
2022/01/18 13:00:49;;;;;;;19.58;7.28;;;6.50;99.90;;;;;;5004193;28;20381;-52
2022/01/18 13:03:24;;;;;;;23.33;7.65;;;6.60;99.90;;;;;;5021429;28;20624;-53
2022/01/18 13:05:58;;;;;;;22.15;8.50;;;6.70;99.90;;;;;;5055628;28;20097;-49
2022/01/18 13:08:38;;;;;;;22.55;7.30;;;6.60;99.90;;;;;;5065791;28;20102;-53
2022/01/18 13:11:04;;;;;;;26.45;9.05;;;6.50;99.90;;;;;;5062849;28;20071;-54
2022/01/18 13:13:32;;;;;;;25.10;7.13;;;6.60;99.90;;;;;;5064881;28;20444;-51
2022/01/18 13:22:55;;;;;;;17.25;7.18;;;6.70;99.90;;;;;;5066110;28;20044;-53
2022/01/18 13:25:09;;;;;;;20.92;7.55;;;6.70;99.90;;;;;;5062064;28;20041;-52
2022/01/18 13:28:02;;;;;;;21.75;6.47;;;6.70;99.90;;;;;;5009781;28;20050;-52
2022/01/18 13:30:26;;;;;;;21.77;7.65;;;6.60;99.90;;;;;;5016563;28;20526;-53
2022/01/18 13:32:56;;;;;;;15.50;6.15;;;6.50;99.90;;;;;;5009702;28;20053;-52
2022/01/18 13:35:25;;;;;;;14.40;6.13;;;6.40;99.90;;;;;;5009703;28;20489;-53
2022/01/18 13:37:55;;;;;;;15.48;5.57;;;6.50;99.90;;;;;;5016365;28;20267;-53
2022/01/18 13:40:21;;;;;;;15.63;5.85;;;6.50;99.90;;;;;;5006545;28;20053;-52
2022/01/18 13:42:53;;;;;;;16.77;6.18;;;6.40;99.90;;;;;;5009955;28;20064;-51
2022/01/18 13:45:19;;;;;;;18.30;6.68;;;6.30;99.90;;;;;;5015147;28;20126;-53
2022/01/18 13:48:00;;;;;;;15.73;6.25;;;6.10;99.90;;;;;;5014943;28;20061;-50
2022/01/18 13:50:40;;;;;;;15.10;6.88;;;6.10;99.90;;;;;;5013470;28;20046;-53
2022/01/18 13:53:20;;;;;;;16.13;7.45;;;6.30;99.90;;;;;;5007990;28;20049;-52
2022/01/18 13:55:59;;;;;;;18.05;7.43;;;6.30;99.90;;;;;;5007935;28;20038;-53
2022/01/18 13:58:30;;;;;;;24.13;6.82;;;6.10;99.90;;;;;;5009281;28;20870;-52
2022/01/18 14:01:14;;;;;;;18.27;6.93;;;6.10;99.90;;;;;;5013939;28;20084;-52
2022/01/18 14:04:00;;;;;;;17.13;6.75;;;5.90;99.90;;;;;;5020685;28;20041;-53
2022/01/18 14:06:37;;;;;;;29.35;9.18;;;6.00;99.90;;;;;;5060345;28;20537;-52
2022/01/18 14:09:03;;;;;;;17.08;6.78;;;6.00;99.90;;;;;;5062781;28;20032;-52
2022/01/18 14:11:33;;;;;;;22.15;6.95;;;6.00;99.90;;;;;;5062323;28;20130;-53
2022/01/18 14:14:13;;;;;;;20.58;7.00;;;6.00;99.90;;;;;;5062046;28;20056;-53
2022/01/18 14:16:52;;;;;;;20.10;7.57;;;5.90;99.90;;;;;;5063140;28;20068;-58
2022/01/18 14:19:35;;;;;;;20.20;7.15;;;5.90;99.90;;;;;;5061717;28;20036;-47
2022/01/18 14:22:10;;;;;;;25.27;6.70;;;6.10;99.90;;;;;;5063200;28;20032;-51
2022/01/18 14:24:39;;;;;;;18.27;6.88;;;5.90;99.90;;;;;;5061452;28;20041;-53
2022/01/18 14:27:10;;;;;;;24.00;7.63;;;6.00;99.90;;;;;;5062554;28;20054;-53
2022/01/18 14:29:41;;;;;;;19.45;7.38;;;6.00;99.90;;;;;;5063155;28;20071;-53
2022/01/18 14:32:13;;;;;;;16.15;6.75;;;5.80;99.90;;;;;;5061732;28;20044;-52
2022/01/18 14:34:41;;;;;;;21.15;6.85;;;5.80;99.90;;;;;;5061780;28;20044;-52
2022/01/18 14:37:09;;;;;;;21.70;6.78;;;5.40;99.90;;;;;;5060617;28;20102;-50
2022/01/18 14:39:59;;;;;;;25.15;8.25;;;5.80;99.90;;;;;;5062265;28;20056;-53
2022/01/18 14:42:29;;;;;;;24.92;9.18;;;;;;;;;;5059517;28;20036;-50
2022/01/18 14:45:02;;;;;;;27.50;10.60;;;;;;;;;;5062461;28;20037;-54
2022/01/18 14:47:28;;;;;;;26.75;11.15;;;5.60;99.90;;;;;;5061950;28;20052;-52
2022/01/18 14:49:55;;;;;;;29.90;10.57;;;5.40;99.90;;;;;;5059674;28;20051;-54
2022/01/18 14:52:22;;;;;;;25.63;9.75;;;5.60;99.90;;;;;;5061410;28;20166;-50
2022/01/18 14:54:47;;;;;;;32.15;11.15;;;5.40;99.90;;;;;;5061555;28;20025;-53